Time;durP1;ratioP1;P1;durP2;ratioP2;P2;SDS_P1;SDS_P2;PMS_P1;PMS_P2;Temp;Humidity;BMP_temperature;BMP_pressure;BME280_temperature;BME280_humidity;BME280_pressure;Samples;Min_cycle;Max_cycle;Signal;HPM_P1;HPM_P2
2023/10/07 00:02:15;;;;;;;0.00;0.00;;;;;;;14.60;92.66;101142.16;5054116;28;20027;-75
2023/10/07 00:04:42;;;;;;;0.00;0.00;;;;;;;14.53;93.18;101144.34;5031623;28;20025;-75
2023/10/07 00:07:14;;;;;;;0.00;0.00;;;;;;;14.43;93.24;101154.25;5055286;28;20028;-75
2023/10/07 00:09:44;;;;;;;0.00;0.00;;;;;;;14.29;93.44;101142.13;5063204;28;20037;-75
2023/10/07 00:12:14;;;;;;;0.00;0.00;;;;;;;14.25;93.96;101149.28;5047415;28;20411;-76
2023/10/07 00:14:41;;;;;;;0.00;0.00;;;;;;;14.13;94.28;101144.88;5046203;28;20518;-75
2023/10/07 00:17:17;;;;;;;0.00;0.00;;;;;;;14.02;94.22;101132.19;5059371;28;20079;-77
2023/10/07 00:19:46;;;;;;;0.00;0.00;;;;;;;14.02;94.74;101147.84;5066295;28;20025;-76
2023/10/07 00:22:19;;;;;;;0.00;0.00;;;;;;;13.94;94.92;101140.97;5058585;28;20055;-76
2023/10/07 00:24:46;;;;;;;0.00;0.00;;;;;;;13.85;95.12;101137.13;5066425;28;20020;-76
2023/10/07 00:27:29;;;;;;;0.00;0.00;;;;;;;13.82;95.19;101132.97;5052472;28;20025;-74
2023/10/07 00:29:55;;;;;;;0.00;0.00;;;;;;;13.83;95.32;101142.03;5021461;28;20036;-74
2023/10/07 00:32:40;;;;;;;0.00;0.00;;;;;;;13.79;95.72;101142.59;5054270;28;20021;-73
2023/10/07 00:35:07;;;;;;;0.00;0.00;;;;;;;13.70;95.96;101124.97;5048937;28;20040;-75
2023/10/07 00:37:38;;;;;;;0.00;0.00;;;;;;;13.71;96.27;101126.63;5040051;28;20514;-73
2023/10/07 00:42:59;;;;;;;0.00;0.00;;;;;;;13.65;96.99;101135.94;5038167;28;20380;-75
2023/10/07 00:45:25;;;;;;;0.00;0.00;;;;;;;13.58;97.18;101127.09;5038505;28;20033;-75
2023/10/07 00:47:53;;;;;;;0.00;0.00;;;;;;;13.57;97.16;101126.28;5047765;28;20055;-74
2023/10/07 00:50:25;;;;;;;0.00;0.00;;;;;;;13.52;97.56;101119.94;5036181;28;20479;-77
2023/10/07 00:55:34;;;;;;;0.00;0.00;;;;;;;13.43;97.63;101109.50;5067627;28;20027;-75
2023/10/07 01:00:48;;;;;;;0.00;0.00;;;;;;;13.40;98.25;101115.53;5049663;28;20051;-74
2023/10/07 01:03:39;;;;;;;0.00;0.00;;;;;;;13.39;98.63;101113.88;5035941;28;20032;-76
2023/10/07 01:06:10;;;;;;;0.00;0.00;;;;;;;13.38;98.69;101112.22;5047127;28;20020;-73
2023/10/07 01:08:38;;;;;;;0.00;0.00;;;;;;;13.34;99.08;101105.59;5041536;28;20035;-73
2023/10/07 01:11:08;;;;;;;0.00;0.00;;;;;;;13.34;99.16;101105.59;5063141;28;20096;-73
2023/10/07 01:13:44;;;;;;;0.00;0.00;;;;;;;13.34;99.23;101111.09;5025824;28;20555;-73
2023/10/07 01:16:14;;;;;;;0.00;0.00;;;;;;;13.32;99.25;101099.53;5046492;28;20497;-73
2023/10/07 01:18:39;;;;;;;0.00;0.00;;;;;;;13.37;99.57;101104.25;5023339;28;20028;-72
2023/10/07 01:21:11;;;;;;;0.00;0.00;;;;;;;13.25;99.58;101079.72;5065754;28;20025;-72
2023/10/07 01:23:39;;;;;;;0.00;0.00;;;;;;;13.31;99.72;101081.38;5040757;28;20086;-76
2023/10/07 01:26:14;;;;;;;0.00;0.00;;;;;;;13.39;99.92;101097.38;5053663;28;20308;-75
2023/10/07 01:28:40;;;;;;;0.00;0.00;;;;;;;13.40;100.00;101092.72;5024503;28;20083;-74
2023/10/07 01:31:10;;;;;;;0.00;0.00;;;;;;;13.39;100.00;101100.13;5051334;28;20024;-75
2023/10/07 01:33:47;;;;;;;0.00;0.00;;;;;;;13.39;100.00;101102.88;5041195;28;20052;-76
2023/10/07 01:36:24;;;;;;;0.00;0.00;;;;;;;13.38;100.00;101098.47;5035394;28;20116;-76
2023/10/07 01:38:52;;;;;;;0.00;0.00;;;;;;;13.44;100.00;101104.81;5059752;28;20046;-75
2023/10/07 01:41:27;;;;;;;0.00;0.00;;;;;;;13.43;100.00;101097.66;5043936;28;20040;-75
2023/10/07 01:43:59;;;;;;;0.00;0.00;;;;;;;13.46;100.00;101099.06;5018046;28;20029;-76
2023/10/07 01:46:30;;;;;;;0.00;0.00;;;;;;;13.48;100.00;101099.59;5067514;28;20029;-75
2023/10/07 01:48:57;;;;;;;0.00;0.00;;;;;;;13.47;100.00;101097.97;5049811;28;20112;-75
2023/10/07 01:51:26;;;;;;;0.00;0.00;;;;;;;13.46;100.00;101090.81;5050225;28;20025;-75
2023/10/07 01:53:56;;;;;;;0.00;0.00;;;;;;;13.44;100.00;101093.81;5046168;28;20548;-75
2023/10/07 01:56:26;;;;;;;0.00;0.00;;;;;;;13.43;100.00;101093.00;5065821;28;20073;-75
2023/10/07 01:59:04;;;;;;;0.00;0.00;;;;;;;13.42;100.00;101082.28;5068193;28;20035;-75
2023/10/07 02:01:30;;;;;;;0.00;0.00;;;;;;;13.41;100.00;101080.63;5044491;28;20037;-75
2023/10/07 02:03:58;;;;;;;0.00;0.00;;;;;;;13.40;100.00;101078.97;5037435;28;20028;-77
2023/10/07 02:06:26;;;;;;;0.00;0.00;;;;;;;13.40;100.00;101077.06;5038269;28;20170;-75
2023/10/07 02:08:54;;;;;;;0.00;0.00;;;;;;;13.40;100.00;101067.97;5022664;28;20116;-76
2023/10/07 02:11:30;;;;;;;0.00;0.00;;;;;;;13.40;100.00;101066.09;5050084;28;20040;-75
2023/10/07 02:13:56;;;;;;;0.00;0.00;;;;;;;13.40;100.00;101071.56;5012110;28;20132;-75
2023/10/07 02:16:25;;;;;;;0.00;0.00;;;;;;;13.35;100.00;101068.78;5026812;28;20710;-73
2023/10/07 02:18:50;;;;;;;0.00;0.00;;;;;;;13.36;100.00;101064.97;5040880;28;20037;-71
2023/10/07 02:21:20;;;;;;;0.00;0.00;;;;;;;13.32;100.00;101069.31;5036805;28;20036;-73
2023/10/07 02:23:46;;;;;;;0.00;0.00;;;;;;;13.31;100.00;101056.66;5029159;28;20499;-73
2023/10/07 02:26:19;;;;;;;0.10;0.10;;;;;;;13.31;100.00;101064.09;5019398;28;20108;-74
2023/10/07 02:28:52;;;;;;;0.00;0.00;;;;;;;13.27;100.00;101058.28;5037738;28;20029;-72
2023/10/07 02:31:23;;;;;;;0.00;0.00;;;;;;;13.26;100.00;101064.91;5004160;28;20025;-72
2023/10/07 02:33:53;;;;;;;0.00;0.00;;;;;;;13.23;100.00;101068.19;5036441;28;22018;-72
2023/10/07 02:36:29;;;;;;;0.00;0.00;;;;;;;13.24;100.00;101069.81;5026900;28;20036;-72
2023/10/07 02:38:56;;;;;;;0.00;0.00;;;;;;;13.21;100.00;101067.59;5039287;28;20041;-72
2023/10/07 02:41:25;;;;;;;0.00;0.00;;;;;;;13.21;100.00;101067.59;4987139;28;20360;-74
2023/10/07 02:43:51;;;;;;;0.00;0.00;;;;;;;13.19;100.00;101064.31;5045471;28;20082;-74
2023/10/07 02:46:33;;;;;;;0.00;0.00;;;;;;;13.16;100.00;101071.16;5044015;28;20467;-73
2023/10/07 02:49:06;;;;;;;0.00;0.00;;;;;;;13.13;100.00;101057.97;5015023;28;20301;-72
2023/10/07 02:51:39;;;;;;;0.00;0.00;;;;;;;13.09;100.00;101049.41;5035243;28;20412;-72
2023/10/07 02:54:20;;;;;;;0.00;0.00;;;;;;;13.06;100.00;101051.88;5022728;28;20020;-75
2023/10/07 02:57:04;;;;;;;0.00;0.00;;;;;;;13.00;100.00;101056.53;5041661;28;20033;-75
2023/10/07 02:59:31;;;;;;;0.00;0.00;;;;;;;12.95;100.00;101050.19;5048390;28;20051;-76
2023/10/07 03:07:41;;;;;;;0.00;0.00;;;;;;;12.85;100.00;101048.19;5046451;28;20029;-76
2023/10/07 03:10:29;;;;;;;0.00;0.00;;;;;;;12.84;100.00;101052.06;5027765;28;20039;-75
2023/10/07 03:12:57;;;;;;;0.00;0.00;;;;;;;12.80;100.00;101045.44;5027361;28;20483;-78
2023/10/07 03:16:09;;;;;;;0.00;0.00;;;;;;;12.74;100.00;101048.13;5041727;28;20048;-76
2023/10/07 03:18:29;;;;;;;0.00;0.00;;;;;;;12.70;100.00;101047.03;5047111;28;20094;-76
2023/10/07 03:21:06;;;;;;;0.00;0.00;;;;;;;12.64;100.00;101036.28;5063447;28;20051;-76
2023/10/07 03:23:35;;;;;;;0.00;0.00;;;;;;;12.62;100.00;101033.81;5046804;28;20035;-76
2023/10/07 03:28:35;;;;;;;0.00;0.00;;;;;;;12.57;100.00;101025.53;5063726;28;20038;-77
2023/10/07 03:31:08;;;;;;;0.00;0.00;;;;;;;12.59;100.00;101023.38;5054054;28;20025;-76
2023/10/07 03:33:45;;;;;;;0.00;0.00;;;;;;;12.54;100.00;101009.59;5065345;28;20037;-76
2023/10/07 03:41:47;;;;;;;0.00;0.00;;;;;;;12.49;100.00;101006.84;5053244;28;20033;-76
2023/10/07 03:44:19;;;;;;;0.00;0.00;;;;;;;12.46;100.00;100999.16;5029601;28;20036;-75
2023/10/07 03:46:48;;;;;;;0.00;0.00;;;;;;;12.38;100.00;100984.00;5041353;28;20116;-76
2023/10/07 03:49:16;;;;;;;0.00;0.00;;;;;;;12.44;100.00;100998.56;5062829;28;20032;-73
2023/10/07 03:51:45;;;;;;;0.00;0.00;;;;;;;12.43;100.00;100996.94;5026506;28;20166;-75
2023/10/07 03:54:15;;;;;;;0.00;0.00;;;;;;;12.46;100.00;101001.91;5041619;28;20020;-75
2023/10/07 03:56:41;;;;;;;0.00;0.00;;;;;;;12.43;100.00;101002.44;5047519;28;20111;-75
2023/10/07 03:59:06;;;;;;;0.00;0.00;;;;;;;12.42;100.00;101007.06;5044394;28;20107;-74
2023/10/07 04:01:33;;;;;;;0.00;0.00;;;;;;;12.43;100.00;101002.44;5055162;28;20040;-74
2023/10/07 04:04:01;;;;;;;0.00;0.00;;;;;;;12.43;100.00;101005.16;5059631;28;20107;-74
2023/10/07 04:06:34;;;;;;;0.00;0.00;;;;;;;12.43;100.00;100996.94;5056682;28;20033;-73
2023/10/07 04:09:07;;;;;;;0.00;0.00;;;;;;;12.48;100.00;101000.53;5063066;28;20107;-74
2023/10/07 04:11:37;;;;;;;0.00;0.00;;;;;;;12.47;100.00;100995.28;5043350;28;20047;-76
2023/10/07 04:16:52;;;;;;;0.00;0.00;;;;;;;12.50;100.00;100997.50;5043817;28;20067;-75
2023/10/07 04:21:44;;;;;;;0.00;0.00;;;;;;;12.50;100.00;101009.31;5061941;28;20025;-74
2023/10/07 04:24:11;;;;;;;0.00;0.00;;;;;;;12.52;100.00;101009.88;5025822;28;20598;-75
2023/10/07 04:26:40;;;;;;;0.00;0.00;;;;;;;12.55;100.00;101019.50;5062028;28;20025;-75
2023/10/07 04:29:16;;;;;;;0.00;0.00;;;;;;;12.52;100.00;101011.81;5056521;28;20067;-73
2023/10/07 04:31:51;;;;;;;0.00;0.00;;;;;;;12.55;100.00;101008.53;5010012;28;20081;-74
2023/10/07 04:34:23;;;;;;;0.05;0.05;;;;;;;12.57;100.00;101003.59;5054428;28;20115;-75
2023/10/07 04:42:22;;;;;;;0.00;0.00;;;;;;;12.62;100.00;101005.56;5040779;28;20040;-72
2023/10/07 04:47:38;;;;;;;0.00;0.00;;;;;;;12.57;100.00;101009.91;5019548;28;20039;-74
2023/10/07 04:52:30;;;;;;;0.00;0.00;;;;;;;12.55;100.00;101027.72;5023066;28;20033;-76
2023/10/07 04:54:58;;;;;;;0.00;0.00;;;;;;;12.56;100.00;101015.69;4989590;28;20142;-72
2023/10/07 05:03:14;;;;;;;0.00;0.00;;;;;;;12.49;100.00;101006.84;5034362;28;20045;-73
2023/10/07 05:05:43;;;;;;;0.00;0.00;;;;;;;12.58;100.00;101022.53;5024810;28;20033;-73
2023/10/07 05:08:27;;;;;;;0.00;0.00;;;;;;;12.50;100.00;101003.00;5035041;28;20045;-72
2023/10/07 05:11:46;;;;;;;0.00;0.00;;;;;;;12.66;100.00;101012.16;5039240;28;20044;-72
2023/10/07 05:14:22;;;;;;;0.00;0.00;;;;;;;12.60;100.00;100996.75;4952657;28;20038;-72
2023/10/07 05:16:52;;;;;;;0.00;0.00;;;;;;;12.67;100.00;101009.13;5037485;28;20029;-77
2023/10/07 05:19:22;;;;;;;0.00;0.00;;;;;;;12.54;100.00;101006.88;5046249;28;20083;-76
2023/10/07 05:22:14;;;;;;;0.00;0.00;;;;;;;12.52;100.00;101009.06;5020711;28;20018;-76
2023/10/07 05:24:46;;;;;;;0.00;0.00;;;;;;;12.47;100.00;100998.88;5012102;28;20491;-72
2023/10/07 05:27:12;;;;;;;0.00;0.00;;;;;;;12.46;100.00;101004.63;5002031;28;20067;-73
2023/10/07 05:29:45;;;;;;;0.00;0.00;;;;;;;12.33;100.00;100987.53;5005259;28;20459;-73
2023/10/07 05:32:23;;;;;;;0.00;0.00;;;;;;;12.26;100.00;100978.72;5004174;28;20040;-71
2023/10/07 05:34:58;;;;;;;0.00;0.00;;;;;;;12.28;100.00;101001.22;5024220;28;20312;-77
2023/10/07 05:37:34;;;;;;;0.00;0.00;;;;;;;12.14;100.00;100983.56;5004337;28;20041;-73
2023/10/07 05:40:23;;;;;;;;;;;;;;;;;;;;;
2023/10/07 05:43:00;;;;;;;0.00;0.00;;;;;;;12.10;100.00;100985.19;5038886;28;20013;-73
2023/10/07 05:45:34;;;;;;;0.00;0.00;;;;;;;11.99;100.00;100976.06;5034047;28;20033;-72
2023/10/07 05:48:10;;;;;;;0.00;0.00;;;;;;;11.95;100.00;100980.41;5043773;28;20033;-73
2023/10/07 05:51:26;;;;;;;0.00;0.00;;;;;;;12.11;100.00;101012.34;5004175;28;20051;-73
2023/10/07 05:54:05;;;;;;;0.00;0.00;;;;;;;11.93;100.00;100997.13;5036615;28;20052;-73
2023/10/07 05:56:46;;;;;;;0.00;0.00;;;;;;;11.90;100.00;100999.50;4989709;28;20128;-72
2023/10/07 05:59:13;;;;;;;0.00;0.00;;;;;;;11.86;100.00;100999.22;5023969;28;20152;-72
2023/10/07 06:01:39;;;;;;;0.00;0.00;;;;;;;11.77;100.00;100989.78;5019855;28;20029;-72
2023/10/07 06:04:04;;;;;;;0.00;0.00;;;;;;;11.78;100.00;100996.94;5012643;28;20688;-71
2023/10/07 06:06:38;;;;;;;0.00;0.00;;;;;;;11.67;100.00;100991.38;5032361;28;20043;-70
2023/10/07 06:09:13;;;;;;;0.10;0.10;;;;;;;11.71;100.00;101013.59;5016817;28;20387;-71
2023/10/07 06:11:39;;;;;;;0.00;0.00;;;;;;;11.76;100.00;101032.00;4984089;28;20566;-71
2023/10/07 06:14:31;;;;;;;0.00;0.00;;;;;;;11.78;100.00;101024.34;5021215;28;20091;-71
2023/10/07 06:17:20;;;;;;;0.00;0.00;;;;;;;11.82;100.00;101000.81;5002348;28;20055;-75
2023/10/07 06:20:26;;;;;;;0.00;0.00;;;;;;;11.98;100.00;101013.59;5021608;28;20493;-75
2023/10/07 06:23:10;;;;;;;;;;;;;;;;;;;;;
2023/10/07 06:25:48;;;;;;;;;;;;;;;12.36;100.00;101022.66;5027313;28;20372;-76
2023/10/07 06:32:23;;;;;;;0.00;0.00;;;;;;;12.46;100.00;101021.09;5038611;28;20497;-73
2023/10/07 06:43:18;;;;;;;0.00;0.00;;;;;;;13.23;100.00;101049.78;5991629;23;20095;-71
2023/10/07 06:45:45;;;;;;;0.00;0.00;;;;;;;13.38;100.00;101057.25;4984482;28;20034;-72
2023/10/07 06:48:12;;;;;;;0.00;0.00;;;;;;;13.52;100.00;101063.09;4977472;28;20366;-72
2023/10/07 06:50:41;;;;;;;0.00;0.00;;;;;;;13.66;100.00;101057.91;4965496;28;20026;-73
2023/10/07 06:53:11;;;;;;;0.00;0.00;;;;;;;13.82;100.00;101066.19;4974211;28;20042;-74
2023/10/07 06:55:44;;;;;;;0.00;0.00;;;;;;;13.92;100.00;101068.94;4974555;28;20026;-75
2023/10/07 06:58:11;;;;;;;0.00;0.00;;;;;;;14.01;100.00;101061.81;4982735;28;20038;-76
2023/10/07 07:01:22;;;;;;;0.00;0.00;;;;;;;14.08;100.00;101056.84;4988093;28;20022;-72
2023/10/07 07:03:26;;;;;;;0.00;0.00;;;;;;;14.13;100.00;101067.03;4968022;28;20058;-73
2023/10/07 07:05:52;;;;;;;0.00;0.00;;;;;;;14.11;100.00;101059.06;5007475;28;20080;-74
2023/10/07 07:08:22;;;;;;;0.00;0.00;;;;;;;14.22;100.00;101070.06;4997605;28;20038;-73
2023/10/07 07:10:55;;;;;;;0.00;0.00;;;;;;;14.29;100.00;101081.63;4974654;28;20041;-73
2023/10/07 07:13:26;;;;;;;0.00;0.00;;;;;;;14.28;100.00;101074.47;4983052;28;20053;-74
2023/10/07 07:15:57;;;;;;;0.00;0.00;;;;;;;14.38;100.00;101085.47;4983293;28;20034;-74
2023/10/07 07:18:26;;;;;;;0.00;0.00;;;;;;;14.44;100.00;101084.38;4968638;28;20153;-74
2023/10/07 07:21:14;;;;;;;0.00;0.00;;;;;;;14.47;100.00;101094.81;4987073;28;20404;-74
2023/10/07 07:23:45;;;;;;;0.00;0.00;;;;;;;14.55;100.00;101095.38;4981536;28;20412;-75
2023/10/07 07:26:12;;;;;;;0.00;0.00;;;;;;;14.67;100.00;101104.19;4982917;28;20018;-76
2023/10/07 07:28:43;;;;;;;0.00;0.00;;;;;;;14.73;100.00;101103.06;4979132;28;20030;-77
2023/10/07 07:31:18;;;;;;;0.00;0.00;;;;;;;14.87;100.00;101105.28;4981555;28;20026;-74
2023/10/07 07:33:48;;;;;;;0.00;0.00;;;;;;;14.99;100.00;101111.31;4982052;28;20033;-76
2023/10/07 07:36:37;;;;;;;0.00;0.00;;;;;;;15.05;100.00;101115.69;4982466;28;20084;-77
2023/10/07 07:39:10;;;;;;;0.00;0.00;;;;;;;15.16;100.00;101130.28;4981825;28;20411;-75
2023/10/07 07:41:55;;;;;;;0.00;0.00;;;;;;;15.25;100.00;101125.00;4981822;28;20512;-75
2023/10/07 07:44:32;;;;;;;0.00;0.00;;;;;;;15.45;100.00;101130.44;4979630;28;20042;-75
2023/10/07 07:47:07;;;;;;;0.00;0.00;;;;;;;15.64;100.00;101127.88;4984480;28;20082;-75
2023/10/07 07:49:34;;;;;;;0.00;0.00;;;;;;;15.77;100.00;101136.63;4976012;28;20038;-77
2023/10/07 07:52:00;;;;;;;0.00;0.00;;;;;;;15.88;100.00;101144.59;4986179;28;20023;-76
2023/10/07 07:54:26;;;;;;;0.00;0.00;;;;;;;15.95;100.00;101130.50;4975922;28;20041;-74
2023/10/07 07:56:54;;;;;;;0.00;0.00;;;;;;;16.13;100.00;101142.78;4955205;28;20042;-73
2023/10/07 07:59:20;;;;;;;0.00;0.00;;;;;;;16.28;100.00;101141.03;4965627;28;20049;-73
2023/10/07 08:01:53;;;;;;;0.00;0.00;;;;;;;16.46;100.00;101150.59;4994968;28;20022;-72
2023/10/07 08:07:21;;;;;;;0.00;0.00;;;;;;;16.63;100.00;101147.41;4982890;28;20041;-71
2023/10/07 08:09:53;;;;;;;0.00;0.00;;;;;;;16.80;100.00;101158.84;4981024;28;20116;-75
2023/10/07 08:12:20;;;;;;;0.00;0.00;;;;;;;16.88;100.00;101155.50;4965106;28;20023;-72
2023/10/07 08:14:47;;;;;;;0.00;0.00;;;;;;;17.00;100.00;101157.06;4973152;28;20047;-75
2023/10/07 08:17:19;;;;;;;0.00;0.00;;;;;;;17.16;100.00;101149.44;4956898;28;20072;-71
2023/10/07 08:19:44;;;;;;;0.00;0.00;;;;;;;17.26;99.65;101155.66;4979443;28;20034;-72
2023/10/07 08:22:18;;;;;;;0.00;0.00;;;;;;;17.31;99.02;101162.25;4962300;28;20033;-75
2023/10/07 08:24:44;;;;;;;0.00;0.00;;;;;;;17.26;96.83;101166.72;4985025;28;20053;-75
2023/10/07 08:27:43;;;;;;;0.00;0.00;;;;;;;17.42;96.32;101167.38;4981392;28;20031;-76
2023/10/07 08:29:56;;;;;;;0.00;0.00;;;;;;;17.65;95.27;101166.81;4984995;28;20412;-76
2023/10/07 08:32:57;;;;;;;0.00;0.00;;;;;;;17.76;93.65;101168.34;4978670;28;20051;-75
2023/10/07 08:35:17;;;;;;;0.00;0.00;;;;;;;17.89;91.94;101170.38;4977969;28;20373;-76
2023/10/07 08:37:47;;;;;;;0.00;0.00;;;;;;;18.05;91.46;101175.75;4978469;28;20502;-72
2023/10/07 08:40:39;;;;;;;0.00;0.00;;;;;;;18.21;90.50;101177.16;4999485;28;20080;-72
2023/10/07 08:43:09;;;;;;;0.00;0.00;;;;;;;18.30;87.88;101172.56;4978413;28;20066;-73
2023/10/07 08:45:39;;;;;;;0.00;0.00;;;;;;;18.46;87.70;101175.13;4976539;28;20056;-73
2023/10/07 08:48:15;;;;;;;0.00;0.00;;;;;;;18.65;87.06;101172.31;4979894;28;20441;-73
2023/10/07 08:50:55;;;;;;;0.00;0.00;;;;;;;18.81;84.59;101175.66;4994161;28;20477;-73
2023/10/07 08:53:23;;;;;;;0.00;0.00;;;;;;;18.90;83.81;101184.13;4979880;28;20026;-72
2023/10/07 08:55:53;;;;;;;0.00;0.00;;;;;;;19.06;83.68;101185.50;4975844;28;20049;-73
2023/10/07 08:58:22;;;;;;;0.00;0.00;;;;;;;19.23;82.00;101182.13;4977894;28;20381;-72
2023/10/07 09:00:50;;;;;;;0.00;0.00;;;;;;;19.33;81.55;101193.03;4985474;28;20038;-71
2023/10/07 09:03:19;;;;;;;0.00;0.00;;;;;;;19.50;81.19;101191.59;4976294;28;20022;-72
2023/10/07 09:05:46;;;;;;;0.00;0.00;;;;;;;19.63;80.45;101196.31;4987843;28;20038;-72
2023/10/07 09:08:12;;;;;;;0.00;0.00;;;;;;;19.89;80.15;101193.06;4965211;28;20022;-72
2023/10/07 09:10:38;;;;;;;0.00;0.00;;;;;;;20.19;78.71;101197.09;4981090;28;20029;-72
2023/10/07 09:13:05;;;;;;;0.00;0.00;;;;;;;20.49;76.97;101199.47;4974687;28;20038;-75
2023/10/07 09:15:35;;;;;;;0.00;0.00;;;;;;;20.85;76.67;101201.38;4974660;28;20035;-72
2023/10/07 09:18:04;;;;;;;0.00;0.00;;;;;;;21.27;74.33;101199.19;4987582;28;20029;-71
2023/10/07 09:20:32;;;;;;;0.00;0.00;;;;;;;21.62;72.07;101196.56;4975071;28;20038;-72
2023/10/07 09:23:14;;;;;;;0.00;0.00;;;;;;;22.23;70.31;101204.22;4979094;28;20027;-72
2023/10/07 09:25:46;;;;;;;0.00;0.00;;;;;;;22.60;68.54;101196.38;4971082;28;20061;-72
2023/10/07 09:28:18;;;;;;;0.00;0.00;;;;;;;22.61;66.75;101198.84;4977621;28;20030;-76
2023/10/07 09:30:45;;;;;;;0.00;0.00;;;;;;;22.24;65.87;101203.91;4972565;28;20065;-75
2023/10/07 09:33:19;;;;;;;0.00;0.00;;;;;;;21.79;65.80;101196.63;4981900;28;20026;-75
2023/10/07 09:35:47;;;;;;;0.00;0.00;;;;;;;21.68;66.93;101198.06;4980369;28;20030;-74
2023/10/07 09:39:13;;;;;;;0.00;0.00;;;;;;;21.63;67.63;101202.97;4973914;28;20075;-72
2023/10/07 09:41:12;;;;;;;0.00;0.00;;;;;;;21.65;67.27;101195.91;4973986;28;20034;-73
2023/10/07 09:43:43;;;;;;;0.00;0.00;;;;;;;21.66;66.52;101202.31;4988901;28;20112;-72
2023/10/07 09:46:10;;;;;;;0.00;0.00;;;;;;;21.60;66.14;101204.44;4980777;28;20030;-73
2023/10/07 09:48:41;;;;;;;0.00;0.00;;;;;;;21.62;66.11;101202.13;4977469;28;20515;-72
2023/10/07 09:51:50;;;;;;;0.00;0.00;;;;;;;21.70;64.74;101204.13;4990872;28;20038;-72
2023/10/07 09:54:01;;;;;;;0.00;0.00;;;;;;;21.65;65.48;101195.91;4975849;28;20061;-71
2023/10/07 09:56:43;;;;;;;0.00;0.00;;;;;;;21.65;65.30;101203.47;4981901;28;20084;-73
2023/10/07 09:59:32;;;;;;;0.00;0.00;;;;;;;21.83;65.53;101199.59;4984443;28;20026;-73
2023/10/07 10:02:42;;;;;;;0.00;0.00;;;;;;;22.20;63.89;101188.19;4983427;28;20057;-73
2023/10/07 10:05:27;;;;;;;0.00;0.00;;;;;;;22.37;63.69;101196.56;4977139;28;20065;-75
2023/10/07 10:08:13;;;;;;;0.00;0.00;;;;;;;23.49;63.84;101199.44;4986856;28;20484;-70
2023/10/07 10:10:44;;;;;;;0.00;0.00;;;;;;;29.12;47.78;101197.44;4986779;28;20396;-72
2023/10/07 10:13:28;;;;;;;0.00;0.00;;;;;;;34.17;37.88;101198.47;4983799;28;20029;-73
2023/10/07 19:47:17;;;;;;;0.00;0.00;;;;;;;16.00;89.72;101224.28;5113662;23;20062;-73
2023/10/07 19:49:43;;;;;;;0.00;0.00;;;;;;;16.01;89.96;101225.09;4947072;28;20046;-73
2023/10/07 19:52:08;;;;;;;0.00;0.00;;;;;;;15.99;90.35;101227.28;4943592;28;20041;-74
2023/10/07 19:54:34;;;;;;;0.00;0.00;;;;;;;16.00;90.25;101235.31;4965867;28;20121;-74
2023/10/07 19:56:59;;;;;;;0.00;0.00;;;;;;;15.99;90.09;101238.31;4934737;28;20037;-75
2023/10/07 19:59:25;;;;;;;0.00;0.00;;;;;;;15.91;90.10;101230.66;4962845;28;20034;-74
2023/10/07 20:02:01;;;;;;;0.00;0.00;;;;;;;15.88;90.29;101227.34;4956282;28;20118;-73
2023/10/07 20:04:29;;;;;;;0.00;0.00;;;;;;;15.88;90.16;101230.09;4958748;28;20038;-73
2023/10/07 20:06:54;;;;;;;0.00;0.00;;;;;;;15.84;91.04;101237.31;4968663;28;20377;-74
2023/10/07 20:09:21;;;;;;;0.00;0.00;;;;;;;15.83;91.41;101246.69;4945465;28;20033;-75
2023/10/07 20:11:46;;;;;;;0.00;0.00;;;;;;;15.67;91.79;101234.03;4966706;28;20034;-73
2023/10/07 20:14:14;;;;;;;0.00;0.00;;;;;;;15.73;92.69;101245.88;4933749;28;20129;-74
2023/10/07 20:16:40;;;;;;;0.00;0.00;;;;;;;15.58;92.31;101243.97;4947719;28;20469;-73
2023/10/07 20:19:07;;;;;;;0.00;0.00;;;;;;;15.60;92.40;101250.84;4935254;28;20117;-73
2023/10/07 20:21:33;;;;;;;0.00;0.00;;;;;;;15.56;92.40;101262.72;4927998;28;20125;-73
2023/10/07 20:23:58;;;;;;;0.00;0.00;;;;;;;15.51;92.06;101267.13;4917945;28;20460;-73
2023/10/07 20:26:26;;;;;;;0.00;0.00;;;;;;;15.49;92.20;101268.50;4956633;28;20034;-74
2023/10/07 20:28:52;;;;;;;0.00;0.00;;;;;;;15.50;92.41;101267.41;4947929;28;20033;-72
2023/10/07 20:31:18;;;;;;;0.00;0.00;;;;;;;15.43;92.47;101259.41;4950625;28;20035;-73
2023/10/07 20:33:45;;;;;;;0.00;0.00;;;;;;;15.50;92.61;101264.66;4931790;28;20041;-72
2023/10/07 20:36:14;;;;;;;0.00;0.00;;;;;;;15.45;92.46;101259.13;4960176;28;20034;-74
2023/10/07 20:38:41;;;;;;;0.00;0.00;;;;;;;15.49;92.56;101263.84;4961035;28;20045;-73
2023/10/07 20:41:06;;;;;;;0.00;0.00;;;;;;;15.46;92.69;101247.88;4973781;28;20061;-73
2023/10/07 20:43:32;;;;;;;0.00;0.00;;;;;;;15.33;92.21;101248.41;4946970;28;20374;-75
2023/10/07 20:46:02;;;;;;;0.00;0.00;;;;;;;15.29;92.73;101258.38;4950834;28;20054;-73
2023/10/07 20:48:29;;;;;;;0.00;0.00;;;;;;;15.29;92.74;101252.84;4982961;28;20026;-73
2023/10/07 20:51:09;;;;;;;0.00;0.00;;;;;;;15.19;93.00;101251.75;4972636;28;20022;-74
2023/10/07 20:53:39;;;;;;;0.00;0.00;;;;;;;15.27;93.29;101261.38;4963021;28;20023;-73
2023/10/07 20:56:06;;;;;;;0.00;0.00;;;;;;;15.22;93.65;101257.81;4972391;28;20031;-74
2023/10/07 20:58:32;;;;;;;0.00;0.00;;;;;;;15.26;94.34;101259.75;4961739;28;20022;-73
2023/10/07 21:01:39;;;;;;;0.00;0.00;;;;;;;15.27;94.90;101271.56;4963044;28;20558;-75
2023/10/07 21:04:04;;;;;;;0.00;0.00;;;;;;;15.28;95.34;101262.22;4907710;29;20059;-75
2023/10/07 21:06:31;;;;;;;0.00;0.00;;;;;;;15.26;94.96;101265.25;4908573;28;20039;-75
2023/10/07 21:08:56;;;;;;;0.00;0.00;;;;;;;15.23;95.14;101270.47;4958391;28;20481;-76
2023/10/07 21:11:22;;;;;;;0.00;0.00;;;;;;;15.22;94.90;101274.34;4962554;28;20034;-74
2023/10/07 21:13:48;;;;;;;0.00;0.00;;;;;;;15.18;95.11;101274.06;4966566;28;20080;-76
2023/10/07 21:16:14;;;;;;;0.00;0.00;;;;;;;15.14;94.67;101268.28;4960723;28;20038;-74
2023/10/07 21:18:41;;;;;;;0.00;0.00;;;;;;;15.17;94.54;101267.72;4946606;28;20065;-77
2023/10/07 21:21:13;;;;;;;0.00;0.00;;;;;;;15.09;94.51;101257.25;4962102;28;20035;-74
2023/10/07 21:23:49;;;;;;;0.00;0.00;;;;;;;15.08;94.80;101258.34;4965070;28;20425;-78
2023/10/07 21:26:20;;;;;;;0.00;0.00;;;;;;;15.19;94.91;101260.00;4933501;28;20130;-75
2023/10/07 21:28:54;;;;;;;0.00;0.00;;;;;;;15.13;94.69;101241.84;4965679;28;20038;-75
2023/10/07 21:31:30;;;;;;;;;;;;;;;;;;;;;
2023/10/07 21:33:57;;;;;;;0.00;0.00;;;;;;;15.21;93.74;101248.72;4963977;28;20039;-75
2023/10/07 21:36:33;;;;;;;0.00;0.00;;;;;;;15.25;93.72;101247.06;4965668;28;20032;-81
2023/10/07 21:38:58;;;;;;;0.00;0.00;;;;;;;15.25;93.06;101252.56;4961591;28;20122;-73
2023/10/07 21:41:25;;;;;;;0.00;0.00;;;;;;;15.29;93.24;101259.19;4966748;28;20117;-70
2023/10/07 21:43:51;;;;;;;0.00;0.00;;;;;;;15.26;93.16;101253.38;4961474;28;20066;-74
2023/10/07 21:46:17;;;;;;;0.00;0.00;;;;;;;15.29;93.17;101263.88;4947505;28;20082;-76
2023/10/07 21:48:43;;;;;;;0.00;0.00;;;;;;;15.23;93.15;101254.78;4966740;28;20388;-73
2023/10/07 21:51:09;;;;;;;0.00;0.00;;;;;;;15.23;92.96;101256.69;4947911;28;20031;-75
2023/10/07 21:53:35;;;;;;;0.00;0.00;;;;;;;15.13;93.17;101261.13;4963341;28;20473;-74
2023/10/07 21:56:02;;;;;;;0.00;0.00;;;;;;;15.08;93.70;101261.09;4967754;28;20376;-78
2023/10/07 21:58:29;;;;;;;0.00;0.00;;;;;;;15.03;93.46;101261.13;4965729;28;20169;-72
2023/10/07 22:01:07;;;;;;;0.00;0.00;;;;;;;15.01;93.49;101257.84;4945316;28;20585;-77
2023/10/07 22:03:37;;;;;;;0.00;0.00;;;;;;;15.00;93.31;101256.16;4955141;28;20042;-77
2023/10/07 22:06:07;;;;;;;0.00;0.00;;;;;;;14.95;93.20;101246.00;4963193;28;20381;-70
2023/10/07 22:08:33;;;;;;;0.00;0.00;;;;;;;15.01;92.66;101257.84;4960741;28;20035;-76
2023/10/07 22:10:58;;;;;;;0.00;0.00;;;;;;;15.08;92.08;101252.03;4955930;28;20043;-72
2023/10/07 22:13:26;;;;;;;0.00;0.00;;;;;;;15.11;90.69;101251.47;4943122;28;20203;-72
2023/10/07 22:15:54;;;;;;;0.00;0.00;;;;;;;15.10;89.90;101256.16;4943608;28;20055;-72
2023/10/07 22:18:24;;;;;;;0.00;0.00;;;;;;;15.07;89.84;101255.88;4983838;28;20042;-77